Time;durP1;ratioP1;P1;durP2;ratioP2;P2;SDS_P1;SDS_P2;PMS_P1;PMS_P2;Temp;Humidity;BMP_temperature;BMP_pressure;BME280_temperature;BME280_humidity;BME280_pressure;Samples;Min_cycle;Max_cycle;Signal;HPM_P1;HPM_P2
2021/10/18 00:01:18;;;;;;;31.80;21.90;;;;;;;5.44;87.56;97979.55;116047;1183;72204;-66
2021/10/18 00:03:48;;;;;;;37.00;23.10;;;;;;;5.48;87.28;97983.70;116078;1183;69673;-66
2021/10/18 00:06:18;;;;;;;41.30;27.20;;;;;;;5.50;86.89;97979.30;116086;1176;68098;-64
2021/10/18 00:08:50;;;;;;;45.90;28.90;;;;;;;5.47;86.76;97979.42;115889;1184;60427;-64
2021/10/18 00:11:19;;;;;;;19.80;14.30;;;;;;;5.45;86.43;97978.64;115937;1182;60365;-66
2021/10/18 00:14:07;;;;;;;20.90;12.80;;;;;;;5.46;86.22;97975.48;116073;1183;72307;-64
2021/10/18 00:16:38;;;;;;;23.00;14.60;;;;;;;5.48;85.72;97973.65;116079;1183;68517;-64
2021/10/18 00:19:09;;;;;;;31.90;20.70;;;;;;;5.50;86.06;97969.07;116124;1183;69311;-68
2021/10/18 00:21:40;;;;;;;51.60;29.70;;;;;;;5.48;87.05;97977.28;115998;1184;60420;-63
2021/10/18 00:24:11;;;;;;;19.90;12.10;;;;;;;5.45;86.55;97977.27;116035;1182;60380;-66
2021/10/18 00:26:42;;;;;;;22.60;14.40;;;;;;;5.46;85.55;97975.31;116078;1184;72172;-64
2021/10/18 00:29:13;;;;;;;25.80;16.00;;;;;;;5.47;85.28;97973.89;115872;1184;68218;-69
2021/10/18 00:31:43;;;;;;;24.40;16.10;;;;;;;5.46;85.65;97972.23;115989;1177;68422;-63
2021/10/18 00:34:13;;;;;;;22.80;16.00;;;;;;;5.46;85.36;97971.52;116021;1182;60357;-63
2021/10/18 00:36:44;;;;;;;35.00;22.80;;;;;;;5.45;86.02;97969.99;116044;1182;60373;-64
2021/10/18 00:39:14;;;;;;;22.40;12.90;;;;;;;5.43;86.12;97969.73;116034;1182;71567;-63
2021/10/18 00:41:45;;;;;;;20.90;12.90;;;;;;;5.43;85.06;97967.50;116063;1184;68291;-66
2021/10/18 00:44:16;;;;;;;16.40;11.90;;;;;;;5.41;84.41;97967.57;115981;1182;68826;-63
2021/10/18 00:46:45;;;;;;;;;;;;;;;5.40;84.05;97964.34;116028;1183;60377;-66
2021/10/18 00:49:16;;;;;;;;;;;;;;;5.35;85.62;97963.86;116076;1184;60385;-64
2021/10/18 00:51:48;;;;;;;18.20;12.60;;;;;;;5.29;86.30;97960.84;115974;1183;73020;-63
2021/10/18 00:54:18;;;;;;;16.30;10.30;;;;;;;5.23;85.90;97959.70;116029;1182;67772;-67
2021/10/18 00:56:50;;;;;;;18.60;12.80;;;;;;;5.21;84.82;97953.76;116073;1183;68322;-66
2021/10/18 00:59:20;;;;;;;17.10;11.00;;;;;;;5.19;84.14;97953.48;116089;1182;60355;-64
2021/10/18 01:01:53;;;;;;;13.40;9.80;;;;;;;5.16;84.17;97953.44;116142;1183;60326;-65
2021/10/18 01:04:23;;;;;;;45.30;17.20;;;;;;;5.11;85.00;97950.55;116123;1183;72339;-65
2021/10/18 01:06:56;;;;;;;48.70;18.30;;;;;;;5.03;86.65;97952.43;116182;1183;67743;-64
2021/10/18 01:09:26;;;;;;;17.80;13.00;;;;;;;4.95;87.38;97953.82;116048;1182;68203;-64
2021/10/18 01:11:56;;;;;;;38.50;17.30;;;;;;;4.90;87.14;97959.03;115908;1184;60387;-64
2021/10/18 01:14:27;;;;;;;40.80;14.60;;;;;;;4.83;87.68;97954.64;116098;1182;60373;-63
2021/10/18 01:16:57;;;;;;;14.80;11.20;;;;;;;4.78;87.11;97947.78;116156;1184;72045;-64
2021/10/18 01:19:28;;;;;;;13.20;7.90;;;;;;;4.72;86.54;97950.42;116093;1183;67560;-63
2021/10/18 01:22:03;;;;;;;17.80;12.10;;;;;;;4.68;86.16;97954.91;116135;1184;69250;-65
2021/10/18 01:24:36;;;;;;;12.00;8.40;;;;;;;4.64;86.27;97955.27;115985;1184;60370;-63
2021/10/18 01:27:06;;;;;;;67.00;17.20;;;;;;;4.61;85.78;97954.30;115979;1183;60757;-63
2021/10/18 01:29:38;;;;;;;18.20;10.10;;;;;;;4.59;85.94;97949.73;116038;1182;72186;-66
2021/10/18 01:32:09;;;;;;;25.50;14.40;;;;;;;4.57;85.97;97947.41;116017;1184;67498;-65
2021/10/18 01:34:39;;;;;;;14.90;10.30;;;;;;;4.53;86.42;97943.58;116098;1183;68344;-67
2021/10/18 01:37:09;;;;;;;12.70;8.90;;;;;;;4.51;85.78;97946.77;116094;1183;60364;-67
2021/10/18 01:39:39;;;;;;;12.70;7.30;;;;;;;4.48;85.81;97947.77;115898;1184;60376;-64
2021/10/18 01:42:08;;;;;;;16.60;9.00;;;;;;;4.45;85.45;97945.66;116025;1184;72226;-65
2021/10/18 01:44:38;;;;;;;69.70;18.30;;;;;;;4.41;85.87;97949.45;116021;1183;68446;-65
2021/10/18 01:47:08;;;;;;;34.80;14.50;;;;;;;4.30;88.38;97949.70;115950;1183;69528;-66
2021/10/18 01:49:39;;;;;;;23.80;12.50;;;;;;;4.25;88.27;97950.41;116129;1184;60363;-66
2021/10/18 01:52:10;;;;;;;39.50;16.70;;;;;;;4.22;87.75;97943.27;115866;1184;60329;-65
2021/10/18 01:54:40;;;;;;;;;;;;;;;4.20;87.85;97941.80;116068;1182;71410;-67
2021/10/18 01:57:10;;;;;;;20.70;10.80;;;;;;;4.15;87.56;97942.34;116063;1182;67030;-64
2021/10/18 01:59:40;;;;;;;13.30;8.30;;;;;;;4.11;87.10;97946.48;115811;1184;68474;-63
2021/10/18 02:02:11;;;;;;;11.20;7.50;;;;;;;4.07;86.51;97944.17;116114;1183;60337;-64
2021/10/18 02:04:57;;;;;;;17.50;8.70;;;;;;;4.06;85.83;97949.39;116082;1182;60360;-66
2021/10/18 02:07:28;;;;;;;10.20;6.80;;;;;;;4.05;85.69;97951.52;116124;1184;70746;-68
2021/10/18 02:10:00;;;;;;;17.50;9.90;;;;;;;4.02;85.33;97947.15;116141;1184;67663;-66
2021/10/18 02:12:30;;;;;;;11.50;6.90;;;;;;;3.98;86.02;97950.73;116115;1184;68525;-68
2021/10/18 02:15:02;;;;;;;12.50;9.00;;;;;;;3.96;85.53;97951.68;116043;1183;60780;-65
2021/10/18 02:17:32;;;;;;;18.00;10.60;;;;;;;3.93;85.24;97952.98;116094;1180;60357;-64
2021/10/18 02:20:07;;;;;;;;;;;;;;;3.90;85.71;97957.10;115964;1183;71987;-66
2021/10/18 02:22:37;;;;;;;5.80;3.80;;;;;;;3.88;86.05;97956.63;116066;1184;67743;-66
2021/10/18 02:25:10;;;;;;;25.70;13.90;;;;;;;3.87;85.60;97962.53;116012;1182;69145;-63
2021/10/18 02:27:42;;;;;;;19.50;14.40;;;;;;;3.84;87.14;97959.36;115985;1183;60343;-66
2021/10/18 02:30:13;;;;;;;31.50;16.20;;;;;;;3.81;87.37;97963.61;116124;1183;60332;-67
2021/10/18 02:32:44;;;;;;;13.80;8.00;;;;;;;3.79;86.87;97968.16;116153;1183;71534;-63
2021/10/18 02:35:14;;;;;;;11.70;7.70;;;;;;;3.78;86.36;97967.17;116205;1182;67019;-63
2021/10/18 02:37:44;;;;;;;12.30;10.10;;;;;;;3.77;86.04;97969.79;116096;1184;67457;-67
2021/10/18 02:40:14;;;;;;;24.00;15.80;;;;;;;3.76;86.66;97970.02;116086;1183;60288;-69
2021/10/18 02:42:44;;;;;;;14.10;10.60;;;;;;;3.72;87.32;97967.05;116039;1182;60334;-67
2021/10/18 02:45:15;;;;;;;6.00;4.40;;;;;;;3.73;86.85;97964.44;116057;1183;70563;-66
2021/10/18 02:47:45;;;;;;;6.80;5.40;;;;;;;3.75;86.67;97968.34;116078;1182;68364;-63
2021/10/18 02:50:15;;;;;;;12.00;8.30;;;;;;;3.77;85.80;97971.52;115995;1182;69243;-62
2021/10/18 02:52:45;;;;;;;12.60;9.90;;;;;;;3.78;85.68;97972.16;116086;1183;60356;-64
2021/10/18 02:55:15;;;;;;;11.30;8.30;;;;;;;3.78;85.90;97973.02;115988;1184;60378;-62
2021/10/18 02:57:45;;;;;;;14.00;10.50;;;;;;;3.79;86.42;97974.02;116117;1184;72051;-63
2021/10/18 03:00:16;;;;;;;12.10;7.70;;;;;;;3.78;87.07;97975.27;116219;1183;67501;-66
2021/10/18 03:02:46;;;;;;;11.40;7.70;;;;;;;3.79;85.95;97977.14;116117;1182;69140;-63
2021/10/18 03:05:16;;;;;;;13.40;7.90;;;;;;;3.80;85.93;97975.55;116129;1182;60777;-69
2021/10/18 03:07:52;;;;;;;15.70;9.70;;;;;;;3.82;85.57;97975.83;116057;1184;60435;-64
2021/10/18 03:10:22;;;;;;;9.50;7.70;;;;;;;3.84;85.87;97973.52;116176;1183;72234;-67
2021/10/18 03:12:52;;;;;;;;;;;;;;;3.86;85.48;97979.31;116180;1183;68426;-63
2021/10/18 03:15:22;;;;;;;9.60;7.70;;;;;;;3.86;85.50;97979.29;116086;1182;68245;-62
2021/10/18 03:17:51;;;;;;;;;;;;;;;3.88;85.30;97978.17;115886;1184;60326;-61
2021/10/18 03:20:21;;;;;;;9.30;7.60;;;;;;;3.90;85.29;97977.79;116102;1183;60305;-67
2021/10/18 03:22:53;;;;;;;17.40;10.90;;;;;;;3.92;85.63;97979.23;116193;1182;72129;-63
2021/10/18 03:25:24;;;;;;;9.30;8.20;;;;;;;3.93;85.84;97981.29;116078;1183;68394;-66
2021/10/18 03:27:54;;;;;;;;;;;;;;;3.94;85.56;97984.86;116161;1184;70545;-61
2021/10/18 03:30:26;;;;;;;11.90;8.60;;;;;;;3.95;85.24;97981.39;116091;1183;60381;-66
2021/10/18 03:32:56;;;;;;;10.40;8.20;;;;;;;3.95;84.86;97980.67;116055;1184;60440;-63
2021/10/18 03:35:26;;;;;;;27.10;10.80;;;;;;;3.96;84.87;97982.02;116111;1183;72267;-63
2021/10/18 03:37:55;;;;;;;20.20;12.90;;;;;;;3.96;85.65;97983.40;116196;1183;67706;-67
2021/10/18 03:40:26;;;;;;;24.70;13.80;;;;;;;3.96;85.91;97980.47;116119;1183;68375;-63
2021/10/18 03:42:55;;;;;;;24.30;12.50;;;;;;;3.95;86.54;97984.33;116079;1183;60318;-65
2021/10/18 03:45:26;;;;;;;17.50;11.90;;;;;;;3.92;87.20;97990.64;115843;1184;60365;-64
2021/10/18 03:47:55;;;;;;;;;;;;;;;3.89;87.01;97991.10;116107;1183;71337;-66
2021/10/18 03:50:25;;;;;;;11.00;7.00;;;;;;;3.86;87.49;97988.77;116108;1184;67960;-67
2021/10/18 03:52:55;;;;;;;8.10;6.00;;;;;;;3.86;86.51;97993.25;116106;1183;69407;-65
2021/10/18 03:55:25;;;;;;;14.60;9.60;;;;;;;3.87;85.86;97994.44;116111;1180;60356;-66
2021/10/18 03:57:54;;;;;;;11.20;7.20;;;;;;;3.86;86.19;97997.07;116112;1182;60420;-68
2021/10/18 04:00:26;;;;;;;9.00;6.30;;;;;;;3.87;85.81;97997.52;116150;1184;71506;-63
2021/10/18 04:02:56;;;;;;;6.70;4.50;;;;;;;3.88;85.81;98000.94;116098;1183;68385;-64
2021/10/18 04:05:26;;;;;;;30.20;15.00;;;;;;;3.90;85.71;97998.48;115983;1183;68361;-63
2021/10/18 04:07:55;;;;;;;16.20;12.00;;;;;;;3.91;86.77;97996.36;115871;1184;60437;-64
2021/10/18 04:10:25;;;;;;;11.10;7.10;;;;;;;3.91;86.54;97992.23;116000;1184;60361;-64
2021/10/18 04:12:55;;;;;;;14.90;10.00;;;;;;;3.91;85.86;97994.11;116001;1183;72013;-62
2021/10/18 04:15:24;;;;;;;11.90;7.80;;;;;;;3.92;86.43;97992.69;115994;1183;67795;-65
2021/10/18 04:17:54;;;;;;;18.60;12.30;;;;;;;3.92;87.35;97998.21;115904;1184;69349;-63
2021/10/18 04:20:24;;;;;;;17.30;11.50;;;;;;;3.89;87.88;97998.68;115969;1184;60364;-65
2021/10/18 04:22:53;;;;;;;20.80;13.60;;;;;;;3.87;87.80;98000.10;116364;1183;60363;-64
2021/10/18 04:25:23;;;;;;;;;;;;;;;3.87;87.38;97994.25;115990;1184;72756;-64
2021/10/18 04:27:53;;;;;;;29.90;11.70;;;;;;;3.89;86.50;97996.61;116078;1184;67814;-68
2021/10/18 04:30:22;;;;;;;13.00;9.10;;;;;;;3.90;86.49;97995.20;115990;1184;68310;-66
2021/10/18 04:32:52;;;;;;;9.40;7.40;;;;;;;3.90;86.99;97998.98;116158;1184;60350;-67
2021/10/18 04:35:22;;;;;;;13.50;9.80;;;;;;;3.92;86.42;97999.43;116118;1184;60366;-63
2021/10/18 04:37:53;;;;;;;37.60;16.30;;;;;;;3.93;86.68;97998.88;116109;1183;71627;-64
2021/10/18 04:40:22;;;;;;;14.20;9.50;;;;;;;3.93;87.56;97998.02;115919;1183;67880;-65
2021/10/18 04:42:52;;;;;;;18.90;11.10;;;;;;;3.93;86.85;97996.96;115981;1183;69266;-63
2021/10/18 04:45:23;;;;;;;15.10;8.40;;;;;;;3.94;86.56;98000.92;116127;1184;60336;-64
2021/10/18 04:47:53;;;;;;;14.50;9.90;;;;;;;3.91;86.61;98000.13;115986;1180;60338;-64
2021/10/18 04:50:23;;;;;;;23.50;13.00;;;;;;;3.90;86.62;97995.89;116176;1182;70413;-65
2021/10/18 04:52:53;;;;;;;17.00;9.70;;;;;;;3.87;87.11;97999.59;116143;1184;68664;-67
2021/10/18 04:55:22;;;;;;;14.80;8.80;;;;;;;3.84;87.20;98000.74;116068;1184;70365;-64
2021/10/18 04:57:58;;;;;;;44.50;15.00;;;;;;;3.83;86.71;98006.29;116133;1182;60739;-63
2021/10/18 05:00:29;;;;;;;7.90;5.50;;;;;;;3.81;86.92;98006.02;115990;1182;60348;-62
2021/10/18 05:02:59;;;;;;;27.60;10.80;;;;;;;3.81;86.75;98010.17;115885;1183;71434;-63
2021/10/18 05:05:30;;;;;;;9.50;6.30;;;;;;;3.80;86.60;98010.23;116152;1183;68451;-66
2021/10/18 05:08:04;;;;;;;;;;;;;;;3.81;86.06;98014.83;116114;1183;69752;-65
2021/10/18 05:10:36;;;;;;;6.30;4.80;;;;;;;3.82;86.26;98017.73;116022;1184;60738;-66
2021/10/18 05:13:06;;;;;;;7.30;5.80;;;;;;;3.83;86.07;98023.18;116113;1182;60337;-67
2021/10/18 05:15:36;;;;;;;7.80;5.30;;;;;;;3.85;85.84;98028.13;116023;1184;71443;-65
2021/10/18 05:18:06;;;;;;;10.50;6.80;;;;;;;3.89;86.14;98036.77;115955;1184;68518;-67
2021/10/18 05:20:36;;;;;;;18.90;11.60;;;;;;;3.92;86.61;98036.48;116167;1183;69466;-63
2021/10/18 05:23:05;;;;;;;25.40;12.10;;;;;;;3.94;87.14;98036.08;116189;1184;60358;-65
2021/10/18 05:25:34;;;;;;;11.10;7.90;;;;;;;3.98;86.70;98041.28;116322;1182;60368;-69
2021/10/18 05:28:05;;;;;;;9.60;6.30;;;;;;;4.03;86.26;98045.42;116232;1182;72114;-67
2021/10/18 05:30:34;;;;;;;18.50;10.60;;;;;;;4.08;86.17;98048.13;116021;1184;68468;-66
2021/10/18 05:33:04;;;;;;;27.60;13.10;;;;;;;4.15;86.35;98044.48;116190;1183;68499;-63
2021/10/18 05:35:34;;;;;;;16.40;9.90;;;;;;;4.20;86.64;98050.50;116186;1183;60380;-68
2021/10/18 05:38:03;;;;;;;12.60;8.20;;;;;;;4.23;86.30;98052.60;116226;1183;60380;-66
2021/10/18 05:40:33;;;;;;;12.70;10.20;;;;;;;4.28;85.40;98053.46;116170;1183;70492;-68
2021/10/18 05:43:04;;;;;;;15.10;10.60;;;;;;;4.31;85.45;98055.58;116188;1183;67794;-62
2021/10/18 05:45:35;;;;;;;14.00;8.70;;;;;;;4.34;85.84;98058.41;115857;1183;68885;-64
2021/10/18 05:48:06;;;;;;;23.90;12.60;;;;;;;4.37;84.97;98058.30;116119;1184;60403;-65
2021/10/18 05:50:40;;;;;;;26.30;15.20;;;;;;;4.37;85.77;98060.73;116236;1182;60384;-65
2021/10/18 05:53:11;;;;;;;61.00;26.80;;;;;;;4.39;86.24;98059.80;116206;1184;72163;-66
2021/10/18 05:55:40;;;;;;;43.10;24.30;;;;;;;4.37;87.37;98064.88;116006;1184;67902;-65
2021/10/18 05:58:11;;;;;;;47.50;22.60;;;;;;;4.37;87.86;98072.45;116165;1183;69389;-65
2021/10/18 06:00:45;;;;;;;70.50;28.10;;;;;;;4.44;87.59;98071.52;116028;1184;60366;-65
2021/10/18 06:03:15;;;;;;;22.80;14.50;;;;;;;4.48;87.51;98073.59;116181;1182;60318;-68
2021/10/18 06:05:45;;;;;;;20.30;13.80;;;;;;;4.58;86.88;98078.72;116198;1184;71409;-62
2021/10/18 06:08:37;;;;;;;40.40;21.30;;;;;;;4.73;86.59;98083.17;116165;1178;68511;-64
2021/10/18 06:11:09;;;;;;;68.00;23.40;;;;;;;4.85;86.85;98085.98;116087;1183;68351;-63
2021/10/18 06:13:40;;;;;;;16.80;12.50;;;;;;;4.99;86.70;98089.07;115857;1184;60335;-62
2021/10/18 06:16:11;;;;;;;23.40;14.90;;;;;;;5.16;86.23;98096.35;115911;1183;60407;-62
2021/10/18 06:18:41;;;;;;;22.10;12.80;;;;;;;5.35;85.50;98103.02;116102;1182;72249;-66
2021/10/18 06:21:11;;;;;;;23.70;14.90;;;;;;;5.45;84.41;98104.48;116094;1184;68245;-63
2021/10/18 06:23:42;;;;;;;18.50;11.90;;;;;;;5.54;84.32;98105.67;116100;1184;69402;-65
2021/10/18 06:26:11;;;;;;;22.00;14.60;;;;;;;5.63;83.83;98106.15;116088;1184;60414;-67
2021/10/18 06:28:42;;;;;;;28.30;17.00;;;;;;;5.68;83.49;98107.53;116120;1174;60336;-66
2021/10/18 06:31:11;;;;;;;;;;;;;;;5.68;83.34;98106.48;116184;1183;72247;-66
2021/10/18 06:33:40;;;;;;;31.80;21.90;;;;;;;5.69;83.54;98108.86;116212;1184;68602;-65
2021/10/18 06:36:09;;;;;;;51.40;21.80;;;;;;;5.68;83.55;98112.34;116064;1184;68913;-64
2021/10/18 06:42:26;;;;;;;17.20;12.20;;;;;;;5.76;83.12;98118.44;116226;1182;60365;-65
2021/10/18 06:44:55;;;;;;;37.60;22.60;;;;;;;5.88;83.48;98119.64;116255;1182;73498;-66
2021/10/18 06:47:25;;;;;;;13.70;10.00;;;;;;;6.06;83.24;98122.55;116061;1184;67646;-64
2021/10/18 06:49:56;;;;;;;13.90;10.70;;;;;;;6.25;82.82;98126.19;116204;1183;69662;-64
2021/10/18 06:52:30;;;;;;;16.80;12.30;;;;;;;6.38;82.45;98125.61;116152;1183;60785;-64
2021/10/18 06:55:00;;;;;;;14.70;11.00;;;;;;;6.54;82.30;98126.81;116250;1183;60350;-65
2021/10/18 06:57:29;;;;;;;;;;;;;;;6.64;80.91;98126.38;116215;1183;71621;-65
2021/10/18 06:59:59;;;;;;;20.90;13.60;;;;;;;6.70;80.42;98129.02;116250;1183;67721;-65
2021/10/18 07:02:28;;;;;;;10.50;8.10;;;;;;;6.79;80.74;98132.95;116136;1182;69107;-64
2021/10/18 07:04:57;;;;;;;12.80;9.40;;;;;;;6.90;80.85;98129.50;116192;1184;60319;-65
2021/10/18 07:07:27;;;;;;;9.50;8.00;;;;;;;6.97;80.62;98134.89;116260;1184;60377;-65
2021/10/18 07:10:00;;;;;;;13.30;10.20;;;;;;;6.97;79.37;98128.13;116073;1182;71657;-67
2021/10/18 07:12:30;;;;;;;13.10;10.30;;;;;;;6.96;79.64;98130.59;116150;1184;67641;-64
2021/10/18 07:15:01;;;;;;;10.50;8.30;;;;;;;7.06;79.89;98129.11;116066;1183;68513;-68
2021/10/18 07:17:31;;;;;;;9.60;7.20;;;;;;;7.17;79.93;98131.02;116096;1184;60382;-66
2021/10/18 07:20:04;;;;;;;11.00;9.40;;;;;;;7.28;79.19;98137.77;115939;1183;60294;-67
2021/10/18 07:22:43;;;;;;;12.90;10.60;;;;;;;7.39;79.48;98137.74;116067;1183;71763;-66
2021/10/18 07:25:14;;;;;;;11.50;10.20;;;;;;;7.51;79.14;98138.17;116211;1179;67423;-66
2021/10/18 07:27:45;;;;;;;11.10;9.60;;;;;;;7.60;78.13;98141.54;116102;1183;68965;-64
2021/10/18 07:30:19;;;;;;;8.30;6.70;;;;;;;7.70;78.61;98142.29;116172;1183;60335;-67
2021/10/18 07:32:49;;;;;;;;;;;;;;;7.80;78.91;98144.21;116174;1184;60441;-66
2021/10/18 07:35:20;;;;;;;13.00;10.80;;;;;;;7.90;78.52;98147.17;116199;1183;72134;-65
2021/10/18 07:37:54;;;;;;;13.40;10.80;;;;;;;8.00;77.58;98150.88;116201;1182;68383;-67
2021/10/18 07:40:23;;;;;;;7.40;5.70;;;;;;;8.12;78.06;98153.73;116147;1183;69578;-64
2021/10/18 07:42:53;;;;;;;10.40;7.50;;;;;;;8.24;77.95;98159.89;116238;1184;60350;-65
2021/10/18 07:45:23;;;;;;;11.60;8.30;;;;;;;8.33;77.94;98163.07;116249;1183;60377;-68
2021/10/18 07:47:53;;;;;;;11.50;9.90;;;;;;;8.40;76.54;98161.52;116154;1183;71639;-62
2021/10/18 07:50:22;;;;;;;14.10;11.70;;;;;;;8.39;75.24;98161.72;116269;1184;68990;-63
2021/10/18 07:52:51;;;;;;;10.50;8.30;;;;;;;8.41;75.16;98160.77;116238;1183;68504;-64
2021/10/18 07:55:21;;;;;;;13.90;11.60;;;;;;;8.45;75.19;98161.96;116237;1183;60291;-63
2021/10/18 07:57:50;;;;;;;13.30;9.30;;;;;;;8.48;75.22;98159.70;116265;1182;60364;-63
2021/10/18 08:00:21;;;;;;;15.20;12.90;;;;;;;8.58;75.66;98161.41;116217;1182;72885;-64
2021/10/18 08:02:51;;;;;;;15.40;13.10;;;;;;;8.65;75.10;98157.73;116195;1182;67896;-63
2021/10/18 08:05:23;;;;;;;19.70;14.80;;;;;;;8.72;74.21;98158.60;116284;1182;68574;-63
2021/10/18 08:07:54;;;;;;;15.40;12.90;;;;;;;8.66;74.16;98162.23;116221;1183;60352;-63
2021/10/18 08:10:23;;;;;;;15.20;12.90;;;;;;;8.73;74.74;98161.86;116132;1182;60302;-64
2021/10/18 08:12:57;;;;;;;15.90;13.00;;;;;;;8.95;74.68;98162.91;116228;1183;71541;-66
2021/10/18 08:15:30;;;;;;;14.70;12.00;;;;;;;9.38;73.21;98161.08;116389;1183;68395;-65
2021/10/18 08:17:59;;;;;;;18.70;14.90;;;;;;;9.70;72.28;98166.92;116209;1184;69121;-67
2021/10/18 08:20:29;;;;;;;15.90;12.30;;;;;;;9.84;70.40;98165.23;116064;1184;60358;-65
2021/10/18 08:22:58;;;;;;;13.60;11.00;;;;;;;10.13;71.78;98163.93;116249;1183;60384;-63
2021/10/18 08:25:28;;;;;;;16.40;13.90;;;;;;;10.52;70.51;98165.93;116189;1183;72462;-64
2021/10/18 08:27:57;;;;;;;12.30;10.50;;;;;;;10.95;68.35;98163.83;116108;1184;68484;-66
2021/10/18 08:30:26;;;;;;;9.50;7.70;;;;;;;11.28;70.03;98161.76;116180;1184;69267;-65
2021/10/18 08:32:56;;;;;;;13.40;10.90;;;;;;;11.56;69.76;98160.98;116226;1183;60708;-65
2021/10/18 08:35:25;;;;;;;14.00;12.00;;;;;;;11.83;68.32;98165.20;116090;1184;60351;-63
2021/10/18 08:40:49;;;;;;;17.70;14.40;;;;;;;12.05;63.01;98164.98;116229;1183;68478;-65
2021/10/18 08:45:49;;;;;;;12.30;10.60;;;;;;;12.32;62.79;98169.27;116042;1184;60356;-66
2021/10/18 08:48:19;;;;;;;13.50;11.10;;;;;;;12.59;63.06;98167.95;116207;1184;60364;-65
2021/10/18 08:50:49;;;;;;;16.40;13.90;;;;;;;12.86;61.00;98165.58;116084;1184;72425;-63
2021/10/18 08:53:19;;;;;;;14.00;11.80;;;;;;;12.62;58.73;98167.86;116223;1184;68375;-64
2021/10/18 08:55:49;;;;;;;12.10;10.40;;;;;;;12.48;60.06;98168.19;116071;1183;69096;-67
2021/10/18 08:58:18;;;;;;;16.10;12.00;;;;;;;12.57;60.71;98172.80;116228;1184;60714;-65
2021/10/18 09:00:51;;;;;;;;;;;;;;;12.47;58.52;98168.77;116262;1183;60370;-64
2021/10/18 09:03:28;;;;;;;14.60;11.00;;;;;;;12.30;58.93;98165.88;116175;1182;72107;-67
2021/10/18 09:06:20;;;;;;;13.60;10.20;;;;;;;12.39;58.55;98161.40;116201;1182;68427;-65
2021/10/18 09:08:51;;;;;;;9.10;7.60;;;;;;;12.66;60.30;98161.00;116071;1181;68521;-68
2021/10/18 09:11:28;;;;;;;13.10;10.40;;;;;;;12.97;59.77;98160.38;116203;1182;60359;-64
2021/10/18 09:14:00;;;;;;;12.80;10.50;;;;;;;13.11;57.70;98163.08;116212;1183;60327;-64
2021/10/18 09:16:48;;;;;;;12.60;9.70;;;;;;;13.41;57.94;98161.46;116197;1181;72167;-63
2021/10/18 09:19:27;;;;;;;11.30;9.80;;;;;;;13.84;58.54;98159.71;116065;1182;68371;-63
2021/10/18 09:21:59;;;;;;;11.30;10.10;;;;;;;14.14;55.27;98163.98;116218;1182;69355;-65
2021/10/18 09:24:33;;;;;;;13.20;10.40;;;;;;;14.85;53.70;98166.58;116221;1174;60370;-65
2021/10/18 09:27:09;;;;;;;16.90;13.50;;;;;;;15.72;50.91;98160.88;116226;1183;60368;-67
2021/10/18 09:29:49;;;;;;;12.60;10.70;;;;;;;15.79;48.83;98162.18;116268;1183;72803;-64
2021/10/18 09:32:20;;;;;;;12.00;10.80;;;;;;;15.92;49.60;98163.45;116185;1184;67321;-66
2021/10/18 09:34:49;;;;;;;11.20;10.00;;;;;;;16.36;49.38;98161.89;116057;1184;70367;-67
2021/10/18 09:37:18;;;;;;;14.90;12.30;;;;;;;16.69;48.47;98162.10;116220;1182;60374;-69
2021/10/18 09:39:48;;;;;;;12.00;9.50;;;;;;;17.16;48.67;98161.50;116214;1183;60362;-66
2021/10/18 09:42:19;;;;;;;12.50;10.40;;;;;;;17.92;46.49;98160.21;116417;1183;72221;-65
2021/10/18 10:56:45;;;;;;;9.60;6.80;;;;;;;21.57;34.59;98121.75;116195;1184;68393;-67
2021/10/18 10:59:28;;;;;;;7.50;6.20;;;;;;;21.16;34.28;98120.78;116189;1183;69845;-66
2021/10/18 11:02:11;;;;;;;8.90;7.70;;;;;;;21.38;32.58;98117.42;115973;1183;60870;-67
2021/10/18 11:04:43;;;;;;;8.30;7.30;;;;;;;21.42;30.27;98111.69;116232;1183;60360;-67
2021/10/18 11:07:42;;;;;;;69.60;61.00;;;;;;;20.35;30.11;98111.72;116210;1183;72875;-67
2021/10/18 11:10:11;;;;;;;10.60;8.30;;;;;;;19.24;32.94;98106.66;116263;1179;67221;-65
2021/10/18 11:12:48;;;;;;;7.80;6.20;;;;;;;18.94;31.68;98107.44;116212;1183;68664;-65
2021/10/18 11:15:21;;;;;;;8.20;5.80;;;;;;;19.63;32.09;98101.92;116154;1182;60439;-64
2021/10/18 11:17:55;;;;;;;33.80;25.70;;;;;;;19.88;31.02;98100.51;116204;1182;60454;-67
2021/10/18 11:20:26;;;;;;;7.90;6.80;;;;;;;18.77;31.93;98094.17;115989;1184;72165;-64
2021/10/18 11:22:58;;;;;;;6.80;4.80;;;;;;;18.71;32.89;98094.08;116235;1183;67451;-66
2021/10/18 11:25:35;;;;;;;6.80;5.70;;;;;;;18.61;34.11;98098.21;116084;1184;69377;-70
2021/10/18 11:28:08;;;;;;;7.70;4.90;;;;;;;18.49;34.36;98098.52;116235;1182;60446;-66
2021/10/18 11:30:39;;;;;;;5.10;4.20;;;;;;;18.35;35.34;98099.06;116211;1182;60343;-69
2021/10/18 11:33:13;;;;;;;8.00;6.20;;;;;;;18.16;35.48;98097.19;116156;1184;72779;-65
2021/10/18 11:35:44;;;;;;;5.70;4.80;;;;;;;17.92;36.05;98096.39;116234;1182;69035;-65
2021/10/18 11:38:15;;;;;;;7.00;5.70;;;;;;;17.80;36.67;98095.02;116195;1183;69181;-67
2021/10/18 11:40:50;;;;;;;9.20;7.10;;;;;;;17.58;37.09;98089.38;116067;1184;60371;-66
2021/10/18 11:43:23;;;;;;;7.00;5.10;;;;;;;17.20;37.73;98084.60;116164;1183;60324;-65
2021/10/18 11:45:54;;;;;;;6.80;5.90;;;;;;;17.08;38.20;98082.95;116078;1182;71332;-64
2021/10/18 11:48:29;;;;;;;8.40;5.70;;;;;;;16.73;38.65;98082.19;116145;1182;68317;-66
2021/10/18 11:51:01;;;;;;;6.90;4.70;;;;;;;16.60;38.94;98079.60;116234;1183;69856;-67
2021/10/18 11:53:53;;;;;;;8.90;6.40;;;;;;;16.47;38.87;98078.46;116142;1183;60370;-66
2021/10/18 11:56:22;;;;;;;7.10;5.80;;;;;;;16.23;39.25;98078.56;116177;1182;60342;-65
2021/10/18 11:58:53;;;;;;;8.50;5.90;;;;;;;16.09;39.63;98077.63;116183;1182;72007;-65
2021/10/18 12:01:25;;;;;;;7.40;6.60;;;;;;;15.89;39.95;98071.23;116062;1184;69116;-69
2021/10/18 12:03:59;;;;;;;10.60;7.70;;;;;;;15.64;41.44;98073.84;116205;1182;69959;-64
2021/10/18 12:06:28;;;;;;;7.70;6.90;;;;;;;15.41;42.62;98070.66;116241;1182;60335;-66
2021/10/18 12:08:59;;;;;;;7.60;5.90;;;;;;;15.33;42.76;98067.11;116115;1183;60359;-64
2021/10/18 12:11:28;;;;;;;7.20;5.80;;;;;;;15.25;42.63;98066.70;116180;1182;72613;-65
2021/10/18 12:14:03;;;;;;;6.60;5.50;;;;;;;15.26;42.97;98064.27;116162;1184;68448;-65
2021/10/18 12:16:32;;;;;;;9.00;5.90;;;;;;;15.30;44.04;98060.67;116126;1183;69888;-67
2021/10/18 12:19:03;;;;;;;13.80;8.80;;;;;;;15.50;43.22;98063.01;115915;1184;60354;-64
2021/10/18 12:21:39;;;;;;;7.90;6.60;;;;;;;16.54;41.54;98060.78;116088;1183;60322;-64
2021/10/18 12:24:15;;;;;;;13.10;9.10;;;;;;;18.00;39.59;98064.38;116136;1183;71372;-68
2021/10/18 12:26:47;;;;;;;9.00;6.90;;;;;;;19.50;36.26;98058.17;116036;1185;68545;-68
2021/10/18 12:29:18;;;;;;;8.60;6.50;;;;;;;20.46;34.45;98057.49;116138;1184;69321;-68
2021/10/18 12:31:48;;;;;;;7.60;6.00;;;;;;;21.18;32.81;98065.60;116019;1184;60396;-69
2021/10/18 12:34:23;;;;;;;9.30;7.00;;;;;;;21.72;32.49;98064.80;115879;1184;60339;-63
2021/10/18 12:37:05;;;;;;;11.60;8.60;;;;;;;21.78;30.71;98061.77;116141;1183;71588;-68
2021/10/18 12:39:54;;;;;;;9.40;7.00;;;;;;;22.01;30.69;98060.55;115934;1184;68241;-65
2021/10/18 12:42:24;;;;;;;8.60;6.70;;;;;;;22.02;30.26;98055.15;115964;1184;69794;-67
2021/10/18 12:45:01;;;;;;;;;;;;;;;22.55;30.18;98053.70;116169;1182;60321;-68
2021/10/18 12:47:31;;;;;;;9.20;7.30;;;;;;;22.75;29.19;98049.15;115946;1185;60385;-68
2021/10/18 12:50:08;;;;;;;11.60;8.90;;;;;;;22.85;29.13;98048.36;116025;1184;71974;-66
2021/10/18 12:52:40;;;;;;;10.20;8.80;;;;;;;22.66;28.96;98052.31;116028;1184;68287;-65
2021/10/18 12:55:21;;;;;;;9.60;5.90;;;;;;;21.57;29.55;98058.05;116075;1183;68442;-69
2021/10/18 12:57:56;;;;;;;7.90;6.30;;;;;;;21.04;32.17;98055.39;115955;1184;60374;-67
2021/10/18 13:00:30;;;;;;;9.60;6.80;;;;;;;20.32;32.20;98057.55;116166;1183;60382;-67
2021/10/18 13:03:21;;;;;;;8.30;6.30;;;;;;;19.61;32.46;98060.23;115978;1184;71570;-64
2021/10/18 13:05:55;;;;;;;7.70;6.20;;;;;;;18.80;34.13;98061.50;116138;1183;68203;-65